Time;durP1;ratioP1;P1;durP2;ratioP2;P2;SDS_P1;SDS_P2;PMS_P1;PMS_P2;Temp;Humidity;BMP_temperature;BMP_pressure;BME280_temperature;BME280_humidity;BME280_pressure;Samples;Min_cycle;Max_cycle;Signal;HPM_P1;HPM_P2
2021/09/14 00:02:23;;;;;;;3.30;3.00;;;;;;;;;;5037194;28;20199;-63
2021/09/14 00:04:51;;;;;;;6.93;3.23;;;;;;;;;;5037516;28;20282;-63
2021/09/14 00:07:21;;;;;;;3.37;3.10;;;;;;;;;;5036987;28;20273;-63
2021/09/14 00:09:49;;;;;;;5.23;3.50;;;;;;;;;;5036093;28;20594;-62
2021/09/14 00:12:17;;;;;;;4.60;3.40;;;;;;;;;;5037096;28;20208;-63
2021/09/14 00:14:45;;;;;;;2.60;2.40;;;;;;;;;;5037427;28;20621;-63
2021/09/14 00:17:13;;;;;;;3.20;2.87;;;;;;;;;;5038872;28;20199;-63
2021/09/14 00:19:41;;;;;;;3.33;2.80;;;;;;;;;;5037005;28;20227;-64
2021/09/14 00:22:09;;;;;;;5.33;3.10;;;;;;;;;;5036775;28;20213;-63
2021/09/14 00:24:38;;;;;;;3.80;2.93;;;;;;;;;;5036172;28;20285;-63
2021/09/14 00:27:06;;;;;;;4.60;2.83;;;;;;;;;;5028415;28;20210;-63
2021/09/14 00:29:34;;;;;;;3.63;3.23;;;;;;;;;;5040665;28;20575;-63
2021/09/14 00:32:02;;;;;;;3.07;2.77;;;;;;;;;;5040032;28;20206;-63
2021/09/14 00:34:30;;;;;;;5.50;3.40;;;;;;;;;;5040611;28;20237;-62
2021/09/14 00:36:58;;;;;;;6.33;3.03;;;;;;;;;;5040755;28;20201;-63
2021/09/14 00:39:26;;;;;;;4.30;2.90;;;;;;;;;;5041238;28;20207;-63
2021/09/14 00:41:55;;;;;;;4.03;2.67;;;;;;;;;;5040586;28;20549;-63
2021/09/14 00:44:23;;;;;;;3.20;2.90;;;;;;;;;;5041025;28;20242;-63
2021/09/14 00:46:51;;;;;;;3.57;2.83;;;;;;;;;;5040708;28;20213;-63
2021/09/14 00:49:19;;;;;;;3.97;2.70;;;;;;;;;;5040993;28;20211;-63
2021/09/14 00:51:47;;;;;;;4.40;2.70;;;;;;;;;;5039916;28;20569;-63
2021/09/14 00:54:16;;;;;;;3.57;2.97;;;;;;;;;;5040615;28;20230;-63
2021/09/14 00:56:44;;;;;;;7.20;3.17;;;;;;;;;;5040428;28;20298;-63
2021/09/14 00:59:13;;;;;;;3.13;2.83;;;;;;;;;;5039174;28;20210;-63
2021/09/14 01:01:41;;;;;;;4.53;2.70;;;;;;;;;;5040459;28;20691;-63
2021/09/14 01:04:09;;;;;;;2.90;2.60;;;;;;;;;;5039220;28;20225;-63
2021/09/14 01:06:38;;;;;;;4.83;2.87;;;;;;;;;;5040547;28;20212;-63
2021/09/14 01:09:06;;;;;;;3.77;2.90;;;;;;;;;;5039037;28;20226;-63
2021/09/14 01:11:34;;;;;;;4.27;3.10;;;;;;;;;;5040732;28;20208;-62
2021/09/14 01:14:03;;;;;;;4.40;2.83;;;;;;;;;;5040081;28;20226;-63
2021/09/14 01:16:33;;;;;;;5.00;2.97;;;;;;;;;;5040545;28;20214;-63
2021/09/14 01:19:02;;;;;;;4.40;3.27;;;;;;;;;;5040901;28;20210;-63
2021/09/14 01:21:30;;;;;;;4.70;3.13;;;;;;;;;;5040234;28;20228;-62
2021/09/14 01:23:59;;;;;;;3.27;2.97;;;;;;;;;;5040477;28;20227;-62
2021/09/14 01:26:28;;;;;;;3.20;2.90;;;;;;;;;;5039886;28;20202;-63
2021/09/14 01:28:56;;;;;;;4.87;2.70;;;;;;;;;;5040017;28;20213;-62
2021/09/14 01:31:24;;;;;;;2.77;2.33;;;;;;;;;;5041714;28;20196;-63
2021/09/14 01:33:53;;;;;;;2.90;2.57;;;;;;;;;;5043894;28;20227;-63
2021/09/14 01:36:21;;;;;;;2.70;2.30;;;;;;;;;;5043375;28;20200;-63
2021/09/14 01:38:49;;;;;;;3.60;2.30;;;;;;;;;;5040222;28;20670;-63
2021/09/14 01:41:19;;;;;;;3.40;2.93;;;;;;;;;;5040013;28;20219;-63
2021/09/14 01:43:47;;;;;;;3.13;2.83;;;;;;;;;;5040198;28;20706;-63
2021/09/14 01:46:15;;;;;;;2.67;2.50;;;;;;;;;;5039653;28;20211;-62
2021/09/14 01:48:43;;;;;;;4.83;2.60;;;;;;;;;;5040060;28;20707;-63
2021/09/14 01:51:11;;;;;;;3.83;2.87;;;;;;;;;;5039430;28;20672;-63
2021/09/14 01:53:39;;;;;;;3.13;2.83;;;;;;;;;;5039245;28;20291;-63
2021/09/14 01:56:08;;;;;;;2.83;2.63;;;;;;;;;;5042211;28;20567;-63
2021/09/14 01:58:37;;;;;;;2.80;2.60;;;;;;;;;;5036590;28;20206;-63
2021/09/14 02:01:10;;;;;;;3.10;2.47;;;;;;;;;;5039611;28;20222;-63
2021/09/14 02:03:45;;;;;;;3.83;2.70;;;;;;;;;;5038872;28;20241;-63
2021/09/14 02:06:28;;;;;;;3.00;2.60;;;;;;;;;;5040364;28;20289;-63
2021/09/14 02:40:03;;;;;;;4.30;3.00;;;;;;;;;;5038223;28;20218;-62
2021/09/14 02:56:39;;;;;;;2.83;2.57;;;;;;;;;;5038055;28;20683;-63
2021/09/14 02:59:06;;;;;;;3.23;2.93;;;;;;;;;;5038632;28;20207;-63
2021/09/14 03:01:33;;;;;;;4.60;2.90;;;;;;;;;;5026860;28;20227;-63
2021/09/14 03:04:05;;;;;;;3.67;2.80;;;;;;;;;;5037968;28;20217;-62
2021/09/14 03:06:33;;;;;;;2.90;2.63;;;;;;;;;;5038316;28;20207;-63
2021/09/14 03:09:01;;;;;;;4.93;2.70;;;;;;;;;;5038601;28;20233;-63
2021/09/14 03:11:29;;;;;;;5.47;2.70;;;;;;;;;;5036593;28;20210;-63
2021/09/14 03:13:58;;;;;;;3.27;2.63;;;;;;;;;;5038472;28;20233;-63
2021/09/14 03:16:26;;;;;;;2.80;2.60;;;;;;;;;;5037988;28;20206;-63
2021/09/14 03:18:54;;;;;;;4.57;3.20;;;;;;;;;;5038445;28;20212;-62
2021/09/14 03:21:23;;;;;;;3.33;2.70;;;;;;;;;;5037223;28;20575;-63
2021/09/14 03:23:51;;;;;;;3.03;2.80;;;;;;;;;;5038100;28;21383;-62
2021/09/14 03:26:19;;;;;;;3.63;2.87;;;;;;;;;;5024705;28;20209;-63
2021/09/14 03:28:47;;;;;;;6.93;3.90;;;;;;;;;;5038464;28;20216;-63
2021/09/14 03:31:16;;;;;;;3.23;2.90;;;;;;;;;;5037403;28;20204;-63
2021/09/14 03:33:45;;;;;;;4.80;3.73;;;;;;;;;;5037631;28;20712;-63
2021/09/14 03:36:15;;;;;;;5.03;3.53;;;;;;;;;;5037527;28;20204;-63
2021/09/14 03:38:45;;;;;;;4.13;3.63;;;;;;;;;;5036654;28;20206;-63
2021/09/14 03:41:13;;;;;;;4.37;3.83;;;;;;;;;;5037212;28;20229;-63
2021/09/14 03:43:41;;;;;;;6.50;3.37;;;;;;;;;;5037732;28;20638;-63
2021/09/14 03:46:09;;;;;;;4.33;3.93;;;;;;;;;;5037155;28;20208;-63
2021/09/14 03:48:37;;;;;;;4.73;4.20;;;;;;;;;;5037157;28;20205;-63
2021/09/14 03:51:06;;;;;;;4.17;3.47;;;;;;;;;;5036970;28;20205;-63
2021/09/14 03:53:34;;;;;;;4.30;3.90;;;;;;;;;;5037644;28;20212;-63
2021/09/14 03:56:04;;;;;;;4.03;3.67;;;;;;;;;;5036140;28;20212;-63
2021/09/14 03:58:32;;;;;;;5.03;3.77;;;;;;;;;;5037701;28;20209;-62
2021/09/14 04:01:00;;;;;;;4.73;4.30;;;;;;;;;;5036812;28;20208;-63
2021/09/14 04:03:38;;;;;;;4.87;3.87;;;;;;;;;;5037166;28;20209;-63
2021/09/14 04:06:22;;;;;;;5.97;4.30;;;;;;;;;;5035876;28;20196;-63
2021/09/14 04:08:51;;;;;;;5.23;4.50;;;;;;;;;;5036036;28;20256;-63
2021/09/14 04:11:22;;;;;;;5.30;4.73;;;;;;;;;;5036880;28;20228;-63
2021/09/14 04:13:51;;;;;;;6.37;4.67;;;;;;;;;;5037732;28;20320;-63
2021/09/14 04:16:19;;;;;;;6.03;4.90;;;;;;;;;;5036929;28;20236;-62
2021/09/14 04:18:47;;;;;;;7.37;4.90;;;;;;;;;;5037087;28;20209;-63
2021/09/14 04:21:15;;;;;;;6.43;5.20;;;;;;;;;;5037607;28;20213;-63
2021/09/14 04:23:43;;;;;;;6.93;6.00;;;;;;;;;;5036006;28;20205;-62
2021/09/14 04:26:11;;;;;;;6.53;5.87;;;;;;;;;;5035832;28;20239;-63
2021/09/14 04:28:41;;;;;;;6.43;4.93;;;;;;;;;;5036487;28;20272;-63
2021/09/14 04:31:09;;;;;;;7.77;5.80;;;;;;;;;;5036209;28;20228;-62
2021/09/14 04:33:38;;;;;;;6.80;5.57;;;;;;;;;;5036789;28;20214;-63
2021/09/14 04:36:06;;;;;;;6.60;5.93;;;;;;;;;;5036777;28;20664;-63
2021/09/14 04:38:34;;;;;;;7.03;5.57;;;;;;;;;;5036676;28;20220;-63
2021/09/14 04:41:02;;;;;;;7.67;6.10;;;;;;;;;;5040329;28;20215;-63
2021/09/14 04:43:30;;;;;;;7.43;6.30;;;;;;;;;;5041097;28;20231;-63
2021/09/14 04:45:59;;;;;;;9.10;6.63;;;;;;;;;;5038422;28;20208;-63
2021/09/14 04:48:27;;;;;;;10.27;5.93;;;;;;;;;;5037591;28;20791;-63
2021/09/14 04:50:55;;;;;;;7.17;6.47;;;;;;;;;;5033670;28;20205;-63
2021/09/14 04:53:23;;;;;;;8.13;7.00;;;;;;;;;;5036465;28;20205;-63
2021/09/14 04:55:51;;;;;;;9.53;6.83;;;;;;;;;;5036053;28;20213;-63
2021/09/14 04:58:19;;;;;;;7.90;6.73;;;;;;;;;;5036055;28;20216;-63
2021/09/14 05:00:47;;;;;;;7.13;6.43;;;;;;;;;;5036708;28;20208;-63
2021/09/14 05:03:17;;;;;;;12.40;6.60;;;;;;;;;;5036634;28;20228;-62
2021/09/14 05:05:45;;;;;;;11.83;7.07;;;;;;;;;;5037020;28;20598;-63
2021/09/14 05:08:13;;;;;;;8.70;6.50;;;;;;;;;;5035782;28;20680;-63
2021/09/14 05:10:41;;;;;;;6.83;5.90;;;;;;;;;;5036135;28;20253;-63
2021/09/14 05:13:09;;;;;;;9.57;6.20;;;;;;;;;;5038783;28;20216;-63
2021/09/14 05:15:37;;;;;;;9.90;7.20;;;;;;;;;;5039447;28;20315;-63
2021/09/14 05:18:10;;;;;;;10.17;6.57;;;;;;;;;;5040151;28;20643;-63
2021/09/14 05:20:40;;;;;;;11.60;6.60;;;;;;;;;;5035544;28;20201;-63
2021/09/14 05:23:13;;;;;;;9.17;6.43;;;;;;;;;;5040269;28;20263;-63
2021/09/14 05:25:41;;;;;;;8.90;6.20;;;;;;;;;;5039171;28;20228;-63
2021/09/14 05:28:12;;;;;;;6.93;6.00;;;;;;;;;;5037920;28;20575;-63
2021/09/14 05:30:40;;;;;;;9.00;6.83;;;;;;;;;;5037006;28;20304;-63
2021/09/14 05:33:08;;;;;;;7.13;6.50;;;;;;;;;;5035956;28;20206;-63
2021/09/14 05:35:39;;;;;;;8.67;6.63;;;;;;;;;;5036217;28;20229;-63
2021/09/14 05:38:08;;;;;;;7.47;6.77;;;;;;;;;;5038906;28;20209;-63
2021/09/14 05:40:36;;;;;;;8.73;6.60;;;;;;;;;;5038899;28;20240;-63
2021/09/14 05:43:04;;;;;;;9.03;6.47;;;;;;;;;;5039466;28;20235;-63
2021/09/14 05:45:32;;;;;;;8.90;6.70;;;;;;;;;;5038196;28;20225;-63
2021/09/14 05:48:01;;;;;;;9.13;6.90;;;;;;;;;;5036951;28;20209;-64
2021/09/14 05:50:29;;;;;;;7.57;6.53;;;;;;;;;;5038434;28;20301;-63
2021/09/14 05:52:57;;;;;;;10.80;6.83;;;;;;;;;;5038184;28;20281;-63
2021/09/14 05:55:27;;;;;;;8.33;7.43;;;;;;;;;;5038060;28;20235;-64
2021/09/14 05:57:54;;;;;;;8.63;6.47;;;;;;;;;;5032798;28;20674;-63
2021/09/14 06:00:22;;;;;;;6.97;6.33;;;;;;;;;;5037744;28;20218;-63
2021/09/14 06:02:50;;;;;;;9.97;6.90;;;;;;;;;;5037933;28;20700;-63
2021/09/14 06:05:18;;;;;;;7.60;6.57;;;;;;;;;;5039117;28;20699;-63
2021/09/14 06:07:46;;;;;;;8.60;6.10;;;;;;;;;;5037775;28;20572;-64
2021/09/14 06:10:14;;;;;;;7.13;6.40;;;;;;;;;;5038759;28;20263;-64
2021/09/14 06:12:44;;;;;;;8.83;6.70;;;;;;;;;;5037967;28;20202;-64
2021/09/14 06:15:12;;;;;;;7.30;6.47;;;;;;;;;;5038871;28;20317;-63
2021/09/14 06:17:40;;;;;;;8.10;6.53;;;;;;;;;;5037061;28;20212;-63
2021/09/14 06:20:09;;;;;;;6.87;5.90;;;;;;;;;;5030272;28;20208;-63
2021/09/14 06:22:37;;;;;;;12.90;6.40;;;;;;;;;;5038868;28;20233;-64
2021/09/14 06:25:06;;;;;;;8.77;6.57;;;;;;;;;;5036064;28;20230;-63
2021/09/14 06:27:34;;;;;;;11.20;6.30;;;;;;;;;;5037597;28;20576;-63
2021/09/14 06:30:03;;;;;;;13.70;7.40;;;;;;;;;;5039071;28;20205;-62
2021/09/14 06:32:31;;;;;;;8.07;6.17;;;;;;;;;;5037993;28;20202;-62
2021/09/14 06:35:00;;;;;;;9.80;5.87;;;;;;;;;;5036787;28;20232;-63
2021/09/14 06:37:28;;;;;;;9.63;6.10;;;;;;;;;;5037691;28;20245;-63
2021/09/14 06:39:56;;;;;;;6.63;6.00;;;;;;;;;;5037170;28;20251;-63
2021/09/14 06:42:25;;;;;;;8.53;6.30;;;;;;;;;;5036494;28;20568;-62
2021/09/14 06:44:53;;;;;;;9.50;5.90;;;;;;;;;;5037996;28;20257;-63
2021/09/14 06:47:22;;;;;;;7.17;5.93;;;;;;;;;;5036374;28;20209;-63
2021/09/14 06:49:50;;;;;;;11.13;6.17;;;;;;;;;;5037616;28;20550;-63
2021/09/14 06:52:35;;;;;;;9.13;5.60;;;;;;;;;;5036281;28;20229;-63
2021/09/14 06:55:04;;;;;;;8.10;5.40;;;;;;;;;;5037591;28;20607;-63
2021/09/14 06:57:32;;;;;;;7.00;5.53;;;;;;;;;;5037251;28;20200;-63
2021/09/14 07:00:00;;;;;;;20.07;6.90;;;;;;;;;;5036138;28;20298;-63
2021/09/14 07:02:29;;;;;;;13.73;5.90;;;;;;;;;;5037584;28;20251;-62
2021/09/14 07:05:01;;;;;;;13.80;5.47;;;;;;;;;;5037137;28;20225;-62
2021/09/14 07:07:29;;;;;;;8.40;5.17;;;;;;;;;;5037602;28;20273;-63
2021/09/14 07:09:57;;;;;;;11.43;5.13;;;;;;;;;;5035872;28;20236;-62
2021/09/14 07:12:27;;;;;;;9.57;5.80;;;;;;;;;;5036743;28;20209;-62
2021/09/14 07:14:55;;;;;;;5.57;4.70;;;;;;;;;;5037716;28;20227;-62
2021/09/14 07:17:23;;;;;;;8.53;4.93;;;;;;;;;;5036766;28;20201;-63
2021/09/14 07:19:53;;;;;;;7.63;4.93;;;;;;;;;;5038002;28;20737;-63
2021/09/14 07:22:21;;;;;;;6.47;4.77;;;;;;;;;;5037088;28;20221;-63
2021/09/14 07:24:49;;;;;;;7.50;4.33;;;;;;;;;;5030985;28;20257;-63
2021/09/14 07:27:17;;;;;;;5.63;4.30;;;;;;;;;;5035428;28;20205;-63
2021/09/14 07:29:45;;;;;;;4.23;3.83;;;;;;;;;;5036233;28;20566;-63
2021/09/14 07:32:13;;;;;;;5.50;4.37;;;;;;;;;;5035912;28;20740;-63
2021/09/14 07:34:41;;;;;;;5.00;3.40;;;;;;;;;;5035786;28;20215;-63
2021/09/14 07:37:10;;;;;;;4.10;3.43;;;;;;;;;;5035129;28;20212;-63
2021/09/14 07:39:39;;;;;;;16.03;5.43;;;;;;;;;;5035765;28;20207;-63
2021/09/14 07:42:07;;;;;;;5.60;3.83;;;;;;;;;;5035885;28;20209;-62
2021/09/14 07:44:35;;;;;;;4.90;3.37;;;;;;;;;;5036126;28;20231;-63
2021/09/14 07:47:03;;;;;;;7.93;3.37;;;;;;;;;;5035328;28;20195;-62
2021/09/14 07:49:31;;;;;;;4.00;3.60;;;;;;;;;;5036613;28;20274;-62
2021/09/14 07:51:59;;;;;;;5.07;3.63;;;;;;;;;;5035102;28;20248;-62
2021/09/14 07:54:28;;;;;;;4.30;3.90;;;;;;;;;;5035354;28;20226;-63
2021/09/14 07:56:56;;;;;;;3.70;3.27;;;;;;;;;;5037321;28;20737;-62
2021/09/14 07:59:24;;;;;;;5.47;3.43;;;;;;;;;;5036424;28;20195;-63
2021/09/14 08:01:53;;;;;;;7.87;3.47;;;;;;;;;;5036532;28;20262;-63
2021/09/14 08:04:21;;;;;;;4.33;3.33;;;;;;;;;;5035075;28;20254;-63
2021/09/14 08:10:19;;;;;;;3.63;3.30;;;;;;;;;;5001509;28;20232;-62
2021/09/14 08:12:47;;;;;;;9.53;4.57;;;;;;;;;;5033929;28;20217;-62
2021/09/14 08:15:15;;;;;;;24.90;6.73;;;;;;;;;;5034360;28;20228;-62
2021/09/14 08:17:43;;;;;;;7.97;3.67;;;;;;;;;;5035349;28;20211;-63
2021/09/14 08:20:12;;;;;;;26.90;7.07;;;;;;;;;;5036849;28;20217;-63
2021/09/14 08:22:39;;;;;;;4.37;3.73;;;;;;;;;;5035358;28;20205;-63
2021/09/14 08:25:08;;;;;;;3.33;2.70;;;;;;;;;;5028918;28;20227;-63
2021/09/14 08:27:37;;;;;;;6.77;3.30;;;;;;;;;;5032715;28;20213;-63
2021/09/14 08:30:06;;;;;;;6.47;3.63;;;;;;;;;;5031402;28;20201;-63
2021/09/14 08:32:34;;;;;;;9.27;3.57;;;;;;;;;;5036640;28;20207;-63
2021/09/14 08:35:02;;;;;;;12.30;5.00;;;;;;;;;;5035549;28;20596;-63
2021/09/14 08:37:30;;;;;;;20.97;5.73;;;;;;;;;;5033981;28;20332;-63
2021/09/14 08:39:58;;;;;;;3.67;3.17;;;;;;;;;;5036249;28;20203;-62
2021/09/14 08:42:26;;;;;;;5.27;3.50;;;;;;;;;;5034758;28;20203;-63
2021/09/14 08:44:55;;;;;;;4.43;3.30;;;;;;;;;;5036816;28;20233;-62
2021/09/14 08:47:24;;;;;;;4.20;3.37;;;;;;;;;;5037993;28;20206;-63
2021/09/14 08:49:52;;;;;;;5.30;3.23;;;;;;;;;;5039859;28;20209;-62
2021/09/14 08:52:20;;;;;;;4.03;3.27;;;;;;;;;;5039912;28;20209;-63
2021/09/14 08:54:48;;;;;;;4.20;3.27;;;;;;;;;;5039435;28;20232;-62
2021/09/14 09:00:47;;;;;;;4.50;3.00;;;;;;;;;;5037744;28;20281;-63
2021/09/14 09:03:21;;;;;;;4.67;3.20;;;;;;;;;;5036527;28;20209;-63
2021/09/14 09:05:49;;;;;;;8.40;3.23;;;;;;;;;;5040286;28;20243;-63
2021/09/14 09:08:18;;;;;;;3.83;3.03;;;;;;;;;;5039566;28;20216;-63
2021/09/14 09:10:58;;;;;;;3.60;3.30;;;;;;;;;;5039120;28;20241;-62
2021/09/14 09:13:27;;;;;;;2.73;2.53;;;;;;;;;;5032080;28;20198;-62
2021/09/14 09:15:57;;;;;;;5.53;3.60;;;;;;;;;;5039954;28;20290;-62
2021/09/14 09:18:25;;;;;;;5.57;3.37;;;;;;;;;;5035764;28;20219;-63
2021/09/14 09:21:00;;;;;;;6.50;3.50;;;;;;;;;;5037171;28;20257;-63
2021/09/14 09:23:29;;;;;;;4.00;3.30;;;;;;;;;;5037620;28;20732;-63
2021/09/14 09:26:08;;;;;;;4.97;3.37;;;;;;;;;;5039329;28;20324;-63
2021/09/14 09:28:36;;;;;;;4.43;3.07;;;;;;;;;;5038766;28;20630;-63
2021/09/14 09:31:10;;;;;;;3.73;3.23;;;;;;;;;;5038131;28;20249;-63
2021/09/14 09:33:38;;;;;;;5.00;3.63;;;;;;;;;;5035428;28;20297;-63
2021/09/14 09:36:07;;;;;;;5.10;3.77;;;;;;;;;;5038198;28;20257;-62
2021/09/14 09:38:46;;;;;;;4.53;2.80;;;;;;;;;;5038750;28;20206;-63
2021/09/14 09:41:18;;;;;;;8.57;3.77;;;;;;;;;;5036338;28;20297;-62
2021/09/14 09:43:47;;;;;;;4.80;3.27;;;;;;;;;;5038919;28;20279;-62
2021/09/14 09:46:19;;;;;;;4.33;3.00;;;;;;;;;;5038430;28;20199;-62
2021/09/14 09:48:48;;;;;;;5.73;2.60;;;;;;;;;;5038691;28;20287;-62
2021/09/14 09:51:16;;;;;;;3.30;3.00;;;;;;;;;;5037787;28;20228;-63
2021/09/14 09:53:44;;;;;;;4.30;2.97;;;;;;;;;;5038892;28;20281;-63
2021/09/14 09:56:12;;;;;;;4.30;2.70;;;;;;;;;;5038204;28;20714;-63
2021/09/14 09:58:42;;;;;;;6.00;2.80;;;;;;;;;;5037587;28;20199;-63
2021/09/14 10:01:13;;;;;;;3.27;2.87;;;;;;;;;;5036243;28;20206;-62
2021/09/14 10:03:48;;;;;;;2.83;2.53;;;;;;;;;;5039364;28;20210;-63
2021/09/14 10:06:17;;;;;;;3.13;2.53;;;;;;;;;;5035960;28;20759;-62
2021/09/14 10:08:50;;;;;;;4.00;3.20;;;;;;;;;;5037168;28;20210;-63
2021/09/14 10:11:24;;;;;;;4.87;3.33;;;;;;;;;;5038448;28;20209;-62
2021/09/14 10:14:03;;;;;;;3.80;3.40;;;;;;;;;;5037458;28;20313;-63
2021/09/14 10:16:35;;;;;;;3.57;2.93;;;;;;;;;;5038222;28;20286;-63
2021/09/14 10:19:13;;;;;;;3.37;3.03;;;;;;;;;;5038209;28;20207;-63
2021/09/14 10:21:41;;;;;;;4.40;3.13;;;;;;;;;;5037979;28;20261;-62
2021/09/14 10:24:19;;;;;;;3.33;2.73;;;;;;;;;;5037247;28;20258;-62
2021/09/14 10:26:47;;;;;;;6.60;3.70;;;;;;;;;;5034080;28;20630;-62
2021/09/14 10:29:16;;;;;;;2.63;2.43;;;;;;;;;;5034936;28;20210;-62
2021/09/14 10:31:44;;;;;;;3.13;2.90;;;;;;;;;;5037093;28;20669;-63
2021/09/14 10:34:15;;;;;;;3.83;2.83;;;;;;;;;;5034280;28;20287;-62
2021/09/14 10:36:44;;;;;;;3.93;3.07;;;;;;;;;;5036710;28;20203;-62
2021/09/14 10:39:21;;;;;;;3.63;3.00;;;;;;;;;;5030989;28;20199;-63
2021/09/14 10:41:52;;;;;;;4.20;3.27;;;;;;;;;;5036864;28;20566;-62
2021/09/14 10:44:27;;;;;;;6.00;2.43;;;;;;;;;;5038635;28;20287;-62
2021/09/14 10:47:06;;;;;;;3.57;3.20;;;;;;;;;;5033083;28;20385;-62
2021/09/14 10:49:49;;;;;;;3.47;2.87;;;;;;;;;;5037216;28;20227;-62
2021/09/14 10:52:17;;;;;;;3.03;2.50;;;;;;;;;;5038243;28;20234;-62
2021/09/14 10:54:49;;;;;;;3.83;2.20;;;;;;;;;;5035071;28;20233;-62
2021/09/14 10:57:21;;;;;;;3.50;2.10;;;;;;;;;;5032685;28;20199;-62
2021/09/14 10:59:50;;;;;;;5.70;4.17;;;;;;;;;;5031428;28;20719;-62
2021/09/14 11:02:18;;;;;;;3.37;2.37;;;;;;;;;;5033824;28;20228;-62
2021/09/14 11:04:46;;;;;;;3.93;2.30;;;;;;;;;;5028999;28;20220;-62
2021/09/14 11:07:20;;;;;;;5.37;2.77;;;;;;;;;;5034383;28;20204;-62
2021/09/14 11:09:52;;;;;;;8.27;2.40;;;;;;;;;;5030898;28;20299;-62
2021/09/14 11:12:20;;;;;;;4.03;2.30;;;;;;;;;;5036581;28;20211;-63
2021/09/14 11:14:48;;;;;;;2.77;2.10;;;;;;;;;;5032604;28;20670;-62
2021/09/14 11:17:23;;;;;;;4.70;2.63;;;;;;;;;;5031773;28;20218;-62
2021/09/14 11:19:52;;;;;;;2.80;2.60;;;;;;;;;;5033873;28;20230;-62
2021/09/14 11:22:35;;;;;;;4.33;2.57;;;;;;;;;;5037353;28;20203;-62
2021/09/14 11:25:04;;;;;;;2.23;2.03;;;;;;;;;;5037013;28;20227;-62
2021/09/14 11:27:32;;;;;;;5.27;2.97;;;;;;;;;;5035691;28;20609;-62
2021/09/14 11:30:00;;;;;;;2.17;1.97;;;;;;;;;;5037668;28;20287;-62
2021/09/14 11:32:28;;;;;;;3.67;2.20;;;;;;;;;;5032068;28;20294;-62
2021/09/14 11:34:57;;;;;;;2.23;2.03;;;;;;;;;;5037492;28;20219;-62
2021/09/14 11:37:28;;;;;;;2.97;1.80;;;;;;;;;;5036067;28;20202;-62
2021/09/14 11:39:59;;;;;;;2.20;2.00;;;;;;;;;;5036986;28;20578;-62
2021/09/14 11:42:27;;;;;;;2.80;1.93;;;;;;;;;;5036540;28;20203;-63
2021/09/14 11:45:03;;;;;;;4.90;1.97;;;;;;;;;;5036650;28;20219;-63
2021/09/14 11:47:31;;;;;;;2.27;2.00;;;;;;;;;;5035353;28;20199;-63
2021/09/14 11:49:59;;;;;;;5.37;2.83;;;;;;;;;;5036267;28;20250;-63
2021/09/14 11:52:28;;;;;;;4.47;2.17;;;;;;;;;;5037061;28;20208;-63
2021/09/14 11:54:56;;;;;;;3.00;2.63;;;;;;;;;;5036166;28;20239;-64
2021/09/14 11:57:25;;;;;;;2.20;1.93;;;;;;;;;;5035762;28;20226;-64
2021/09/14 11:59:54;;;;;;;4.73;2.90;;;;;;;;;;5035898;28;20211;-63
2021/09/14 12:02:23;;;;;;;3.13;2.07;;;;;;;;;;5035443;28;20818;-64
2021/09/14 12:04:59;;;;;;;6.97;2.67;;;;;;;;;;5036023;28;20317;-64
2021/09/14 12:07:26;;;;;;;6.07;2.60;;;;;;;;;;5037027;28;20236;-64
2021/09/14 12:10:01;;;;;;;2.90;2.63;;;;;;;;;;5035804;28;20262;-64
2021/09/14 12:12:31;;;;;;;3.90;2.50;;;;;;;;;;5036495;28;20210;-63
2021/09/14 12:14:59;;;;;;;5.20;2.50;;;;;;;;;;5036737;28;20718;-63
2021/09/14 12:17:28;;;;;;;3.47;2.53;;;;;;;;;;5030784;28;20228;-64
2021/09/14 12:19:56;;;;;;;2.87;2.20;;;;;;;;;;5034028;28;20652;-63
2021/09/14 12:22:26;;;;;;;7.87;2.33;;;;;;;;;;5028153;28;20287;-63
2021/09/14 12:24:54;;;;;;;5.20;2.40;;;;;;;;;;5026160;28;20601;-63
2021/09/14 12:27:22;;;;;;;6.27;2.63;;;;;;;;;;5023246;28;20704;-63
2021/09/14 12:29:52;;;;;;;2.30;2.10;;;;;;;;;;5027470;28;20666;-63
2021/09/14 12:32:20;;;;;;;2.57;2.20;;;;;;;;;;5026912;28;20262;-63
2021/09/14 12:34:48;;;;;;;2.53;2.33;;;;;;;;;;5027147;28;20690;-63
2021/09/14 12:37:16;;;;;;;3.90;2.40;;;;;;;;;;5026833;28;20633;-63
2021/09/14 12:39:44;;;;;;;2.93;2.40;;;;;;;;;;5027521;28;20681;-63
2021/09/14 12:42:12;;;;;;;2.60;2.40;;;;;;;;;;5027569;28;20207;-63
2021/09/14 12:44:40;;;;;;;2.10;2.00;;;;;;;;;;5027909;28;20223;-63
2021/09/14 12:47:10;;;;;;;2.87;2.20;;;;;;;;;;5027331;28;20231;-63
2021/09/14 12:49:38;;;;;;;3.90;2.43;;;;;;;;;;5026537;28;20196;-63
2021/09/14 12:52:06;;;;;;;3.87;2.27;;;;;;;;;;5027491;28;20202;-63
2021/09/14 12:54:34;;;;;;;3.13;2.43;;;;;;;;;;5028862;28;20227;-63
2021/09/14 12:57:17;;;;;;;5.60;2.67;;;;;;;;;;5028214;28;20195;-63
2021/09/14 12:59:45;;;;;;;3.67;2.47;;;;;;;;;;5027908;28;20290;-63
2021/09/14 13:02:15;;;;;;;5.70;2.70;;;;;;;;;;5027040;28;20670;-63
2021/09/14 13:04:43;;;;;;;5.80;2.70;;;;;;;;;;5028383;28;20219;-63
2021/09/14 13:07:11;;;;;;;5.13;2.70;;;;;;;;;;5025588;28;20229;-63
2021/09/14 13:09:39;;;;;;;3.13;2.67;;;;;;;;;;5024250;28;20236;-62
2021/09/14 13:12:10;;;;;;;6.87;2.80;;;;;;;;;;5027266;28;20231;-63
2021/09/14 13:17:25;;;;;;;2.80;2.40;;;;;;;;;;5028665;28;20203;-62
2021/09/14 13:19:53;;;;;;;2.73;2.53;;;;;;;;;;5031776;28;20663;-62
2021/09/14 13:22:21;;;;;;;8.23;2.90;;;;;;;;;;5027228;28;20567;-63
2021/09/14 13:24:49;;;;;;;4.77;2.83;;;;;;;;;;5031411;28;20654;-63
2021/09/14 13:27:17;;;;;;;3.30;2.93;;;;;;;;;;5028433;28;20224;-63
2021/09/14 13:29:45;;;;;;;5.97;3.40;;;;;;;;;;5030812;28;21279;-63
2021/09/14 13:32:13;;;;;;;2.87;2.57;;;;;;;;;;5035228;28;20290;-63
2021/09/14 13:34:42;;;;;;;4.03;2.53;;;;;;;;;;5033257;28;20229;-63
2021/09/14 13:37:10;;;;;;;3.33;2.40;;;;;;;;;;5039939;28;20215;-63
2021/09/14 13:39:38;;;;;;;6.93;2.97;;;;;;;;;;5036213;28;21249;-63
2021/09/14 13:42:07;;;;;;;7.97;2.73;;;;;;;;;;5035296;28;20215;-63
2021/09/14 13:47:21;;;;;;;3.87;2.30;;;;;;;;;;5030338;28;20227;-64
2021/09/14 13:49:51;;;;;;;3.20;2.27;;;;;;;;;;5035366;28;20207;-63
2021/09/14 13:52:19;;;;;;;4.37;2.90;;;;;;;;;;5033172;28;20205;-63
2021/09/14 13:54:47;;;;;;;4.70;2.80;;;;;;;;;;5033559;28;20227;-63
2021/09/14 13:57:15;;;;;;;5.40;2.70;;;;;;;;;;5034641;28;21756;-61
2021/09/14 13:59:44;;;;;;;4.63;2.97;;;;;;;;;;5035265;28;20211;-62
2021/09/14 14:02:12;;;;;;;6.97;2.80;;;;;;;;;;5032327;28;20224;-62
2021/09/14 14:04:40;;;;;;;7.03;2.90;;;;;;;;;;5028410;28;20231;-62
2021/09/14 14:07:09;;;;;;;4.67;2.63;;;;;;;;;;5031243;28;20222;-62
2021/09/14 14:09:37;;;;;;;5.73;3.03;;;;;;;;;;5034525;28;20315;-63
2021/09/14 14:12:05;;;;;;;8.07;3.00;;;;;;;;;;5033272;28;20728;-62
2021/09/14 14:14:36;;;;;;;7.13;2.93;;;;;;;;;;5033215;28;20581;-63
2021/09/14 14:17:04;;;;;;;2.73;2.23;;;;;;;;;;5030973;28;20684;-60
2021/09/14 14:19:32;;;;;;;7.20;3.00;;;;;;;;;;5034597;28;20218;-60
2021/09/14 14:22:01;;;;;;;3.37;2.50;;;;;;;;;;5034419;28;20261;-61
2021/09/14 14:24:30;;;;;;;3.97;2.57;;;;;;;;;;5030960;28;20227;-62
2021/09/14 14:27:04;;;;;;;8.03;2.90;;;;;;;;;;5033183;28;20783;-62
2021/09/14 14:29:32;;;;;;;4.00;2.60;;;;;;;;;;5037009;28;20578;-62
2021/09/14 14:32:00;;;;;;;2.90;2.60;;;;;;;;;;5037151;28;20208;-62
2021/09/14 14:34:28;;;;;;;5.87;2.70;;;;;;;;;;5038650;28;20732;-62
2021/09/14 14:36:56;;;;;;;2.77;2.40;;;;;;;;;;5037728;28;20206;-62
2021/09/14 14:39:24;;;;;;;5.60;2.87;;;;;;;;;;5037145;28;20207;-62
2021/09/14 14:41:54;;;;;;;2.90;2.53;;;;;;;;;;5036638;28;20207;-62
2021/09/14 14:44:22;;;;;;;2.80;2.17;;;;;;;;;;5037560;28;20237;-62
2021/09/14 14:46:50;;;;;;;4.90;2.30;;;;;;;;;;5035847;28;20224;-62
2021/09/14 14:49:18;;;;;;;4.17;2.53;;;;;;;;;;5036933;28;20208;-60
2021/09/14 14:51:46;;;;;;;2.67;2.47;;;;;;;;;;5034108;28;20212;-60
2021/09/14 14:54:14;;;;;;;2.17;2.07;;;;;;;;;;5034786;28;20227;-61
2021/09/14 14:56:42;;;;;;;2.50;2.10;;;;;;;;;;5037238;28;20287;-62
2021/09/14 14:59:11;;;;;;;3.93;3.00;;;;;;;;;;5036911;28;20202;-61
2021/09/14 15:01:39;;;;;;;3.37;2.13;;;;;;;;;;5029591;28;20952;-61
2021/09/14 15:04:08;;;;;;;3.70;2.37;;;;;;;;;;5038018;28;20239;-60
2021/09/14 15:06:36;;;;;;;3.77;2.47;;;;;;;;;;5037402;28;20242;-60
2021/09/14 15:09:04;;;;;;;4.07;2.87;;;;;;;;;;5036855;28;20318;-61
2021/09/14 15:11:32;;;;;;;5.37;2.47;;;;;;;;;;5035222;28;20554;-60
2021/09/14 15:14:00;;;;;;;3.20;2.47;;;;;;;;;;5031594;28;20264;-60
2021/09/14 15:16:30;;;;;;;4.03;2.70;;;;;;;;;;5036073;28;20215;-60
2021/09/14 15:18:58;;;;;;;4.37;2.80;;;;;;;;;;5038284;28;20210;-60
2021/09/14 15:21:27;;;;;;;5.43;2.20;;;;;;;;;;5036226;28;20211;-60
2021/09/14 15:23:55;;;;;;;3.87;2.97;;;;;;;;;;5037056;28;20261;-60
2021/09/14 15:26:24;;;;;;;4.23;2.80;;;;;;;;;;5037516;28;20210;-61
2021/09/14 15:28:53;;;;;;;3.73;2.77;;;;;;;;;;5028401;28;21996;-61
2021/09/14 15:31:22;;;;;;;3.00;2.80;;;;;;;;;;5027166;28;20297;-61
2021/09/14 15:33:52;;;;;;;4.23;2.40;;;;;;;;;;5036511;28;20234;-61
2021/09/14 15:36:20;;;;;;;6.10;2.63;;;;;;;;;;5036579;28;20247;-60
2021/09/14 15:38:48;;;;;;;5.30;2.40;;;;;;;;;;5037262;28;20728;-60
2021/09/14 15:41:17;;;;;;;4.13;2.80;;;;;;;;;;5036435;28;20205;-61
2021/09/14 15:43:47;;;;;;;3.83;2.83;;;;;;;;;;5036796;28;20260;-61
2021/09/14 15:46:15;;;;;;;3.97;2.30;;;;;;;;;;5036702;28;20211;-60
2021/09/14 15:48:44;;;;;;;6.97;2.80;;;;;;;;;;5037092;28;21045;-60
2021/09/14 15:51:14;;;;;;;3.83;2.23;;;;;;;;;;5035969;28;20232;-60
2021/09/14 15:53:42;;;;;;;5.33;2.50;;;;;;;;;;5037223;28;20245;-60